createdAt,value
2019-05-07T00:01:17.736Z,5.57
2019-05-07T00:03:47.807Z,6.57
2019-05-07T00:06:17.492Z,9.07
2019-05-07T00:08:47.137Z,6.47
2019-05-07T00:11:27.945Z,7.13
2019-05-07T00:13:57.574Z,9.00
2019-05-07T00:16:27.466Z,7.13
2019-05-07T00:18:57.022Z,9.93
2019-05-07T00:21:26.572Z,6.90
2019-05-07T00:23:56.118Z,8.17
2019-05-07T00:26:26.193Z,7.50
2019-05-07T00:28:55.992Z,8.67
2019-05-07T00:31:25.609Z,8.23
2019-05-07T00:33:55.174Z,9.20
2019-05-07T00:36:36.356Z,7.50
2019-05-07T00:39:17.361Z,7.77
2019-05-07T00:41:53.533Z,8.07
2019-05-07T00:44:23.924Z,6.10
2019-05-07T00:46:53.865Z,7.83
2019-05-07T00:49:25.187Z,5.93
2019-05-07T00:51:54.924Z,6.73
2019-05-07T00:54:27.873Z,8.47
2019-05-07T00:56:57.734Z,7.47
2019-05-07T00:59:27.341Z,7.43
2019-05-07T01:01:57.253Z,8.00
2019-05-07T01:04:27.148Z,7.87
2019-05-07T01:06:57.806Z,6.70
2019-05-07T01:09:27.421Z,6.33
2019-05-07T01:11:56.978Z,9.27
2019-05-07T01:14:26.524Z,8.37
2019-05-07T01:16:56.084Z,5.63
2019-05-07T01:19:25.690Z,8.23
2019-05-07T01:21:55.221Z,7.37
2019-05-07T01:24:24.774Z,10.03
2019-05-07T01:26:54.724Z,9.67
2019-05-07T01:29:24.740Z,5.50
2019-05-07T01:31:59.930Z,6.87
2019-05-07T01:34:37.801Z,7.20
2019-05-07T01:37:07.352Z,5.77
2019-05-07T01:39:36.928Z,6.17
2019-05-07T01:42:07.114Z,9.50
2019-05-07T01:44:36.655Z,7.17
2019-05-07T01:47:07.472Z,9.97
2019-05-07T01:49:37.470Z,9.40
2019-05-07T01:52:07.382Z,7.87
2019-05-07T01:54:37.397Z,6.60
2019-05-07T01:57:07.004Z,6.87
2019-05-07T01:59:36.548Z,6.03
2019-05-07T02:02:13.672Z,6.57
2019-05-07T02:04:49.413Z,8.57
2019-05-07T02:07:33.475Z,7.80
2019-05-07T02:10:12.732Z,7.03
2019-05-07T02:12:42.718Z,6.63
2019-05-07T02:15:12.419Z,6.63
2019-05-07T02:17:45.325Z,7.60
2019-05-07T02:20:15.245Z,6.63
2019-05-07T02:22:44.784Z,6.67
2019-05-07T02:25:15.073Z,8.03
2019-05-07T02:27:44.881Z,8.03
2019-05-07T02:30:15.135Z,8.87
2019-05-07T02:32:44.705Z,7.50
2019-05-07T02:35:14.417Z,8.97
2019-05-07T02:37:56.588Z,6.40
2019-05-07T02:40:29.709Z,6.20
2019-05-07T02:42:59.278Z,5.03
2019-05-07T02:45:53.819Z,5.90
2019-05-07T02:48:27.405Z,5.80
2019-05-07T02:51:04.178Z,8.23
2019-05-07T02:53:43.233Z,5.10
2019-05-07T02:56:13.179Z,5.70
2019-05-07T02:58:43.563Z,8.97
2019-05-07T03:01:14.012Z,7.37
2019-05-07T03:03:44.907Z,5.60
2019-05-07T03:06:15.084Z,7.00
2019-05-07T03:08:44.989Z,6.87
2019-05-07T03:11:14.545Z,7.70
2019-05-07T03:13:44.238Z,8.00
2019-05-07T03:16:13.981Z,6.20
2019-05-07T03:18:44.114Z,9.90
2019-05-07T03:21:18.299Z,6.67
2019-05-07T03:24:07.932Z,7.17
2019-05-07T03:26:43.402Z,7.60
2019-05-07T03:29:18.052Z,7.90
2019-05-07T03:31:57.306Z,7.07
2019-05-07T03:34:46.645Z,8.60
2019-05-07T03:37:16.082Z,7.43
2019-05-07T03:39:45.624Z,8.03
2019-05-07T03:42:15.449Z,9.20
2019-05-07T03:45:04.115Z,10.77
2019-05-07T03:47:43.880Z,6.43
2019-05-07T03:50:14.949Z,7.10
2019-05-07T03:52:44.665Z,6.77
2019-05-07T03:55:14.766Z,6.23
2019-05-07T03:57:44.549Z,7.67
2019-05-07T04:00:14.739Z,6.77
2019-05-07T04:02:44.277Z,10.13
2019-05-07T04:05:14.503Z,8.97
2019-05-07T04:07:44.677Z,7.90
2019-05-07T04:10:15.395Z,11.67
2019-05-07T04:12:45.226Z,8.13
2019-05-07T04:15:19.227Z,9.17
2019-05-07T04:17:47.214Z,9.33
2019-05-07T04:20:16.924Z,10.87
2019-05-07T04:22:46.921Z,7.90
2019-05-07T04:25:34.607Z,8.83
2019-05-07T04:28:15.284Z,6.77
2019-05-07T04:30:44.839Z,6.70
2019-05-07T04:33:16.485Z,7.43
2019-05-07T04:36:02.930Z,8.07
2019-05-07T04:38:34.695Z,7.13
2019-05-07T04:41:04.627Z,6.47
2019-05-07T04:43:34.278Z,8.53
2019-05-07T04:46:03.826Z,7.80
2019-05-07T04:48:34.025Z,8.10
2019-05-07T04:51:05.942Z,8.53
2019-05-07T04:53:35.494Z,9.40
2019-05-07T04:56:05.161Z,10.37
2019-05-07T04:58:35.081Z,8.27
2019-05-07T05:01:06.289Z,7.50
2019-05-07T05:03:39.161Z,6.93
2019-05-07T05:06:07.795Z,10.77
2019-05-07T05:08:37.388Z,6.63
2019-05-07T05:11:08.049Z,9.23
2019-05-07T05:13:37.621Z,11.37
2019-05-07T05:16:28.649Z,10.90
2019-05-07T05:18:58.677Z,7.83
2019-05-07T05:21:42.916Z,8.17
2019-05-07T05:24:23.772Z,7.93
2019-05-07T05:26:53.589Z,8.23
2019-05-07T05:29:23.369Z,7.50
2019-05-07T05:31:53.368Z,8.17
2019-05-07T05:34:23.242Z,7.90
2019-05-07T05:36:53.318Z,7.90
2019-05-07T05:39:23.361Z,7.80
2019-05-07T05:41:57.973Z,5.70
2019-05-07T05:44:31.991Z,9.43
2019-05-07T05:47:02.481Z,8.63
2019-05-07T05:49:32.368Z,6.53
2019-05-07T05:52:37.169Z,6.90
2019-05-07T05:55:13.248Z,10.10
2019-05-07T05:58:02.761Z,7.63
2019-05-07T06:01:04.149Z,11.37
2019-05-07T06:04:08.976Z,9.03
2019-05-07T06:07:11.060Z,8.53
2019-05-07T06:09:54.523Z,11.50
2019-05-07T06:12:46.031Z,10.00
2019-05-07T06:15:33.725Z,7.17
2019-05-07T06:18:20.987Z,11.50
2019-05-07T06:20:59.644Z,10.10
2019-05-07T06:23:37.704Z,10.60
2019-05-07T06:26:07.370Z,12.17
2019-05-07T06:28:37.600Z,11.13
2019-05-07T06:31:07.733Z,11.40
2019-05-07T06:33:38.041Z,12.47
2019-05-07T06:36:09.672Z,12.27
2019-05-07T06:38:45.744Z,12.40
2019-05-07T06:41:26.429Z,10.00
2019-05-07T06:44:01.948Z,13.40
2019-05-07T06:46:49.476Z,10.43
2019-05-07T06:49:19.609Z,9.90
2019-05-07T06:51:49.333Z,10.17
2019-05-07T06:54:26.104Z,13.80
2019-05-07T06:56:56.360Z,10.77
2019-05-07T06:59:37.793Z,12.77
2019-05-07T07:02:29.117Z,11.87
2019-05-07T07:05:25.760Z,10.77
2019-05-07T07:07:57.441Z,13.80
2019-05-07T07:10:33.812Z,12.10
2019-05-07T07:13:04.092Z,10.43
2019-05-07T07:15:34.024Z,10.60
2019-05-07T07:18:12.346Z,11.83
2019-05-07T07:21:02.174Z,12.47
2019-05-07T07:23:32.574Z,9.23
2019-05-07T07:26:03.205Z,10.53
2019-05-07T07:28:33.424Z,11.87
2019-05-07T07:31:34.638Z,11.43
2019-05-07T07:34:05.445Z,15.57
2019-05-07T07:37:08.260Z,14.93
2019-05-07T07:39:27.888Z,13.03
2019-05-07T07:42:10.304Z,12.83
2019-05-07T07:44:42.590Z,17.17
2019-05-07T07:47:12.997Z,15.23
2019-05-07T07:49:45.304Z,11.67
2019-05-07T07:52:15.433Z,11.87
2019-05-07T07:54:45.293Z,11.30
2019-05-07T07:57:48.704Z,12.00
2019-05-07T08:00:29.983Z,14.13
2019-05-07T08:03:04.928Z,8.57
2019-05-07T08:05:35.544Z,7.97
2019-05-07T08:08:05.271Z,10.07
2019-05-07T08:10:35.306Z,8.73
2019-05-07T08:13:04.972Z,11.60
2019-05-07T08:15:35.025Z,10.63
2019-05-07T08:18:04.917Z,9.63
2019-05-07T08:20:34.941Z,7.83
2019-05-07T08:23:04.853Z,7.87
2019-05-07T08:25:52.249Z,7.47
2019-05-07T08:28:23.284Z,9.27
2019-05-07T08:31:00.303Z,8.50
2019-05-07T08:33:33.426Z,9.07
2019-05-07T08:36:14.876Z,9.50
2019-05-07T08:38:55.210Z,10.37
2019-05-07T08:41:26.877Z,17.20
2019-05-07T08:44:11.726Z,15.37
2019-05-07T08:47:17.456Z,15.93
2019-05-07T08:49:47.611Z,11.73
2019-05-07T08:52:17.416Z,13.97
2019-05-07T08:54:47.005Z,15.73
2019-05-07T08:57:16.942Z,12.30
2019-05-07T09:00:00.115Z,12.27
2019-05-07T09:02:18.387Z,11.83
2019-05-07T09:04:47.946Z,12.63
2019-05-07T09:07:17.826Z,12.57
2019-05-07T09:09:47.402Z,11.70
2019-05-07T09:12:16.984Z,12.27
2019-05-07T09:14:46.548Z,11.00
2019-05-07T09:17:16.317Z,10.60
2019-05-07T09:19:51.219Z,13.23
2019-05-07T09:22:17.640Z,10.27
2019-05-07T09:24:47.456Z,12.43
2019-05-07T09:27:27.591Z,12.20
2019-05-07T09:30:08.857Z,12.67
2019-05-07T09:32:44.429Z,12.00
2019-05-07T09:35:18.592Z,12.83
2019-05-07T09:37:48.425Z,15.77
2019-05-07T09:40:18.164Z,12.70
2019-05-07T09:42:48.077Z,12.37
2019-05-07T09:45:18.413Z,13.53
2019-05-07T09:47:48.381Z,9.90
2019-05-07T09:50:18.640Z,14.47
2019-05-07T09:52:48.256Z,12.17
2019-05-07T09:55:17.884Z,12.53
2019-05-07T09:57:47.454Z,17.20
2019-05-07T10:00:20.077Z,10.60
2019-05-07T10:02:49.715Z,13.23
2019-05-07T10:05:19.544Z,11.30
2019-05-07T10:07:49.249Z,8.70
2019-05-07T10:10:19.457Z,12.20
2019-05-07T10:12:58.005Z,11.23
2019-05-07T10:15:27.801Z,8.47
2019-05-07T10:18:12.375Z,11.33
2019-05-07T10:20:58.729Z,10.70
2019-05-07T10:23:28.447Z,12.57
2019-05-07T10:25:58.289Z,13.90
2019-05-07T10:28:28.001Z,10.67
2019-05-07T10:30:57.975Z,10.47
2019-05-07T10:33:27.611Z,13.50
2019-05-07T10:35:57.312Z,11.33
2019-05-07T10:38:27.128Z,11.27
2019-05-07T10:40:57.013Z,10.47
2019-05-07T10:44:11.889Z,12.83
2019-05-07T10:47:16.451Z,11.23
2019-05-07T10:49:52.586Z,14.50
2019-05-07T10:52:22.846Z,7.37
2019-05-07T10:54:59.580Z,10.87
2019-05-07T10:57:24.354Z,7.63
2019-05-07T10:59:53.912Z,7.53
2019-05-07T11:02:28.689Z,12.53
2019-05-07T11:05:04.443Z,11.77
2019-05-07T11:07:34.389Z,12.90
2019-05-07T11:10:04.491Z,13.20
2019-05-07T11:12:34.122Z,7.73
2019-05-07T11:15:05.453Z,7.87
2019-05-07T11:17:41.910Z,14.13
2019-05-07T11:20:15.587Z,9.63
2019-05-07T11:22:45.219Z,9.57
2019-05-07T11:25:15.450Z,11.80
2019-05-07T11:27:45.072Z,10.37
2019-05-07T11:30:15.370Z,12.97
2019-05-07T11:32:45.269Z,12.27
2019-05-07T11:35:15.423Z,7.43
2019-05-07T11:37:51.853Z,10.37
2019-05-07T11:40:22.924Z,11.33
2019-05-07T11:43:14.507Z,13.10
2019-05-07T11:45:54.166Z,11.30
2019-05-07T11:48:24.168Z,9.40
2019-05-07T11:51:04.249Z,8.97
2019-05-07T11:53:33.565Z,17.87
2019-05-07T11:56:03.162Z,10.77
2019-05-07T11:58:33.788Z,14.77
2019-05-07T12:01:12.469Z,15.37
2019-05-07T12:03:42.873Z,11.23
2019-05-07T12:06:12.672Z,11.63
2019-05-07T12:08:49.759Z,11.80
2019-05-07T12:11:13.869Z,9.03
2019-05-07T12:13:43.447Z,13.90
2019-05-07T12:16:14.184Z,8.03
2019-05-07T12:18:44.224Z,9.30
2019-05-07T12:21:20.127Z,14.23
2019-05-07T12:23:45.789Z,9.50
2019-05-07T12:26:15.708Z,8.73
2019-05-07T12:28:45.249Z,7.00
2019-05-07T12:31:33.620Z,9.33
2019-05-07T12:34:12.921Z,8.37
2019-05-07T12:36:42.531Z,11.83
2019-05-07T12:39:12.715Z,8.10
2019-05-07T12:41:42.780Z,8.47
2019-05-07T12:44:13.068Z,9.10
2019-05-07T12:46:42.981Z,11.10
2019-05-07T12:49:12.626Z,10.90
2019-05-07T12:51:53.944Z,7.87
2019-05-07T12:54:36.101Z,8.73
2019-05-07T12:57:23.598Z,12.80
2019-05-07T12:59:53.154Z,7.10
2019-05-07T13:02:42.073Z,7.50
2019-05-07T13:05:11.890Z,11.27
2019-05-07T13:07:55.128Z,10.40
2019-05-07T13:10:25.037Z,11.20
2019-05-07T13:12:54.614Z,9.27
2019-05-07T13:15:27.840Z,8.60
2019-05-07T13:17:55.468Z,10.50
2019-05-07T13:20:25.292Z,9.13
2019-05-07T13:22:54.926Z,9.30
2019-05-07T13:25:28.336Z,9.17
2019-05-07T13:27:56.848Z,12.50
2019-05-07T13:30:26.624Z,6.77
2019-05-07T13:32:57.064Z,14.73
2019-05-07T13:35:27.075Z,8.00
2019-05-07T13:38:23.324Z,10.77
2019-05-07T13:41:30.696Z,9.53
2019-05-07T13:44:19.667Z,7.13
2019-05-07T13:46:52.991Z,8.83
2019-05-07T13:49:22.884Z,10.63
2019-05-07T13:52:02.845Z,7.77
2019-05-07T13:54:24.444Z,9.60
2019-05-07T13:56:54.365Z,10.37
2019-05-07T13:59:24.065Z,10.20
2019-05-07T14:02:04.493Z,10.23
2019-05-07T14:04:32.688Z,7.93
2019-05-07T14:07:03.160Z,8.17
2019-05-07T14:09:32.792Z,7.30
2019-05-07T14:12:02.499Z,7.20
2019-05-07T14:14:34.530Z,7.10
2019-05-07T14:17:04.008Z,10.23
2019-05-07T14:19:33.938Z,9.33
2019-05-07T14:22:14.673Z,9.40
2019-05-07T14:24:35.706Z,5.77
2019-05-07T14:27:05.268Z,7.10
2019-05-07T14:29:35.221Z,7.23
2019-05-07T14:32:23.372Z,5.17
2019-05-07T14:35:12.353Z,7.20
2019-05-07T14:37:45.677Z,6.87
2019-05-07T14:40:16.296Z,6.37
2019-05-07T14:42:52.432Z,9.73
2019-05-07T14:45:23.742Z,6.80
2019-05-07T14:47:53.375Z,7.07
2019-05-07T14:50:24.058Z,8.27
2019-05-07T14:52:55.251Z,7.30
2019-05-07T14:55:25.081Z,6.23
2019-05-07T14:57:54.975Z,6.47
2019-05-07T15:00:25.281Z,5.73
2019-05-07T15:02:57.140Z,5.17
2019-05-07T15:05:26.824Z,7.93
2019-05-07T15:08:07.325Z,5.97
2019-05-07T15:10:27.733Z,6.60
2019-05-07T15:12:57.432Z,5.67
2019-05-07T15:15:38.432Z,5.27
2019-05-07T15:18:22.860Z,8.30
2019-05-07T15:20:52.622Z,5.93
2019-05-07T15:23:29.656Z,8.30
2019-05-07T15:26:02.002Z,8.37
2019-05-07T15:28:32.302Z,6.23
2019-05-07T15:31:27.337Z,6.77
2019-05-07T15:33:56.968Z,6.17
2019-05-07T15:36:26.840Z,8.13
2019-05-07T15:38:56.473Z,8.07
2019-05-07T15:41:26.365Z,5.73
2019-05-07T15:43:56.301Z,5.83
2019-05-07T15:46:26.033Z,7.37
2019-05-07T15:48:55.584Z,6.10
2019-05-07T15:51:25.205Z,6.00
2019-05-07T15:53:56.713Z,7.40
2019-05-07T15:56:26.336Z,4.17
2019-05-07T15:58:55.904Z,5.77
2019-05-07T16:01:25.764Z,6.47
2019-05-07T16:03:55.460Z,5.17
2019-05-07T16:06:25.703Z,6.50
2019-05-07T16:09:04.133Z,5.00
2019-05-07T16:11:32.474Z,5.53
2019-05-07T16:14:27.395Z,5.43
2019-05-07T16:17:05.025Z,6.40
2019-05-07T16:19:34.893Z,5.57
2019-05-07T16:22:09.330Z,6.53
2019-05-07T16:24:38.877Z,5.77
2019-05-07T16:27:08.424Z,6.90
2019-05-07T16:29:37.980Z,6.73
2019-05-07T16:32:07.854Z,3.77
2019-05-07T16:34:37.652Z,5.40
2019-05-07T16:37:07.722Z,4.03
2019-05-07T16:39:37.431Z,5.87
2019-05-07T16:42:07.396Z,5.87
2019-05-07T16:44:36.983Z,5.07
2019-05-07T16:47:06.940Z,3.77
2019-05-07T16:49:36.480Z,5.87
2019-05-07T16:52:06.137Z,7.10
2019-05-07T16:54:36.355Z,5.30
2019-05-07T16:57:43.368Z,5.73
2019-05-07T17:00:19.006Z,3.73
2019-05-07T17:02:51.644Z,7.43
2019-05-07T17:05:22.856Z,5.00
2019-05-07T17:07:57.652Z,3.67
2019-05-07T17:10:27.868Z,4.37
2019-05-07T17:12:57.411Z,6.07
2019-05-07T17:15:27.064Z,8.83
2019-05-07T17:18:02.538Z,4.17
2019-05-07T17:20:32.751Z,4.10
2019-05-07T17:23:03.109Z,3.50
2019-05-07T17:25:39.130Z,4.57
2019-05-07T17:28:12.607Z,3.83
2019-05-07T17:30:42.256Z,4.37
2019-05-07T17:33:12.813Z,5.43
2019-05-07T17:35:42.910Z,7.63
2019-05-07T17:38:13.149Z,3.93
2019-05-07T17:40:43.706Z,6.67
2019-05-07T17:43:13.928Z,4.33
2019-05-07T17:45:43.842Z,6.13
2019-05-07T17:48:13.749Z,3.60
2019-05-07T17:51:24.507Z,4.30
2019-05-07T17:53:59.985Z,3.43
2019-05-07T17:56:27.433Z,4.07
2019-05-07T17:58:57.233Z,3.13
2019-05-07T18:01:44.796Z,3.37
2019-05-07T18:04:14.424Z,6.10
2019-05-07T18:06:44.346Z,3.70
2019-05-07T18:09:14.704Z,3.30
2019-05-07T18:11:44.873Z,4.03
2019-05-07T18:14:15.964Z,8.17
2019-05-07T18:17:14.748Z,4.07
2019-05-07T18:19:47.236Z,5.23
2019-05-07T18:22:17.124Z,3.43
2019-05-07T18:24:47.023Z,5.50
2019-05-07T18:27:22.397Z,3.83
2019-05-07T18:29:52.531Z,5.03
2019-05-07T18:32:24.658Z,3.47
2019-05-07T18:34:54.439Z,3.47
2019-05-07T18:37:24.404Z,3.23
2019-05-07T18:39:54.326Z,4.20
2019-05-07T18:42:24.241Z,7.17
2019-05-07T18:44:53.784Z,4.30
2019-05-07T18:47:23.668Z,6.07
2019-05-07T18:49:53.297Z,4.17
2019-05-07T18:52:23.114Z,4.93
2019-05-07T18:54:52.706Z,3.93
2019-05-07T18:57:22.694Z,3.33
2019-05-07T18:59:53.156Z,5.23
2019-05-07T19:02:23.160Z,6.80
2019-05-07T19:04:53.184Z,4.10
2019-05-07T19:07:23.170Z,5.93
2019-05-07T19:09:53.074Z,2.83
2019-05-07T19:12:26.403Z,4.07
2019-05-07T19:14:55.956Z,3.97
2019-05-07T19:17:25.865Z,4.23
2019-05-07T19:19:55.801Z,4.30
2019-05-07T19:22:25.819Z,3.90
2019-05-07T19:24:55.737Z,4.83
2019-05-07T19:27:25.304Z,3.40
2019-05-07T19:29:55.138Z,3.13
2019-05-07T19:32:25.069Z,3.93
2019-05-07T19:34:54.824Z,5.70
2019-05-07T19:37:24.693Z,3.37
2019-05-07T19:39:54.497Z,3.80
2019-05-07T19:42:24.314Z,4.37
2019-05-07T19:44:53.885Z,4.07
2019-05-07T19:47:23.603Z,4.77
2019-05-07T19:49:53.434Z,4.90
2019-05-07T19:52:23.397Z,9.03
2019-05-07T19:55:01.248Z,5.53
2019-05-07T19:57:30.065Z,4.13
2019-05-07T19:59:59.913Z,4.93
2019-05-07T20:02:46.862Z,4.47
2019-05-07T20:05:16.736Z,4.73
2019-05-07T20:07:46.308Z,3.73
2019-05-07T20:10:21.618Z,4.77
2019-05-07T20:13:06.445Z,4.47
2019-05-07T20:15:37.311Z,4.50
2019-05-07T20:18:07.195Z,5.17
2019-05-07T20:20:43.840Z,8.63
2019-05-07T20:23:22.761Z,6.45
2019-05-07T20:25:52.887Z,5.63
2019-05-07T20:28:22.556Z,4.37
2019-05-07T20:30:52.658Z,7.40
2019-05-07T20:33:23.920Z,5.07
2019-05-07T20:35:54.105Z,6.90
2019-05-07T20:38:38.717Z,7.93
2019-05-07T20:41:08.344Z,4.40
2019-05-07T20:43:37.942Z,4.90
2019-05-07T20:46:13.454Z,5.17
2019-05-07T20:48:43.122Z,6.20
2019-05-07T20:51:12.960Z,3.93
2019-05-07T20:54:14.037Z,4.23
2019-05-07T20:56:49.072Z,6.30
2019-05-07T20:59:18.962Z,6.93
2019-05-07T21:01:49.166Z,4.90
2019-05-07T21:04:18.693Z,4.67
2019-05-07T21:06:48.292Z,5.87
2019-05-07T21:09:18.107Z,4.67
2019-05-07T21:11:48.113Z,8.00
2019-05-07T21:14:22.778Z,6.57
2019-05-07T21:16:52.619Z,7.20
2019-05-07T21:19:22.869Z,4.70
2019-05-07T21:21:52.428Z,4.43
2019-05-07T21:24:22.665Z,6.33
2019-05-07T21:26:53.129Z,5.67
2019-05-07T21:29:23.017Z,5.73
2019-05-07T21:31:52.627Z,6.60
2019-05-07T21:34:23.001Z,5.37
2019-05-07T21:36:52.848Z,5.10
2019-05-07T21:39:22.548Z,4.90
2019-05-07T21:41:52.604Z,4.81
2019-05-07T21:44:22.780Z,6.40
2019-05-07T21:46:53.762Z,4.63
2019-05-07T21:49:23.300Z,5.13
2019-05-07T21:51:54.622Z,6.77
2019-05-07T21:54:39.024Z,5.20
2019-05-07T21:57:22.203Z,5.92
2019-05-07T22:00:12.713Z,5.23
2019-05-07T22:02:42.644Z,5.13
2019-05-07T22:05:12.536Z,5.73
2019-05-07T22:07:42.299Z,4.27
2019-05-07T22:10:12.821Z,4.97
2019-05-07T22:12:42.913Z,6.87
2019-05-07T22:15:14.039Z,4.70
2019-05-07T22:17:44.385Z,4.07
2019-05-07T22:20:14.265Z,4.27
2019-05-07T22:22:44.152Z,5.67
2019-05-07T22:25:13.793Z,6.13
2019-05-07T22:27:43.676Z,6.93
2019-05-07T22:30:18.965Z,6.00
2019-05-07T22:32:54.221Z,7.53
2019-05-07T22:35:28.436Z,4.10
2019-05-07T22:37:58.287Z,4.30
2019-05-07T22:40:28.098Z,6.00
2019-05-07T22:42:57.669Z,6.40
2019-05-07T22:45:27.516Z,5.70
2019-05-07T22:47:57.199Z,4.03
2019-05-07T22:50:28.156Z,5.40
2019-05-07T22:52:57.742Z,4.33
2019-05-07T22:55:27.447Z,12.13
2019-05-07T22:58:02.763Z,8.67
2019-05-07T23:00:48.621Z,6.03
2019-05-07T23:03:18.204Z,5.35
2019-05-07T23:05:48.322Z,4.17
2019-05-07T23:08:18.205Z,4.20
2019-05-07T23:10:48.049Z,4.03
2019-05-07T23:13:17.972Z,4.07
2019-05-07T23:15:47.606Z,8.40
2019-05-07T23:18:17.222Z,4.77
2019-05-07T23:20:46.768Z,5.83
2019-05-07T23:23:16.589Z,5.57
2019-05-07T23:25:46.144Z,4.27
2019-05-07T23:28:15.701Z,4.20
2019-05-07T23:30:45.332Z,6.37
2019-05-07T23:33:15.221Z,3.90
2019-05-07T23:35:44.780Z,4.47
2019-05-07T23:38:15.985Z,4.27
2019-05-07T23:41:03.913Z,6.70
2019-05-07T23:43:33.981Z,5.00
2019-05-07T23:46:03.605Z,4.03
2019-05-07T23:48:33.159Z,4.40
2019-05-07T23:51:02.944Z,4.70
2019-05-07T23:53:32.489Z,5.57
2019-05-07T23:56:02.873Z,4.07
2019-05-07T23:58:32.805Z,7.07
